createdAt,value
2019-01-27T00:01:20.690Z,-2.50
2019-01-27T00:04:04.511Z,-2.30
2019-01-27T00:06:46.634Z,-2.30
2019-01-27T00:09:28.407Z,-2.40
2019-01-27T00:11:58.798Z,-2.40
2019-01-27T00:14:49.618Z,-2.40
2019-01-27T00:17:33.066Z,-2.50
2019-01-27T00:20:14.859Z,-2.50
2019-01-27T00:22:57.078Z,-2.50
2019-01-27T00:25:38.996Z,-2.60
2019-01-27T00:28:20.795Z,-2.60
2019-01-27T00:31:02.963Z,-2.60
2019-01-27T00:33:44.654Z,-2.60
2019-01-27T00:36:26.493Z,-2.50
2019-01-27T00:39:08.446Z,-2.50
2019-01-27T00:41:50.129Z,-2.50
2019-01-27T00:44:32.053Z,-2.50
2019-01-27T00:47:13.770Z,-2.40
2019-01-27T00:49:44.070Z,-2.50
2019-01-27T00:52:35.039Z,-2.50
2019-01-27T00:55:19.070Z,-2.50
2019-01-27T00:58:01.394Z,-2.40
2019-01-27T01:00:44.063Z,-2.50
2019-01-27T01:03:25.731Z,-2.50
2019-01-27T01:06:07.854Z,-2.60
2019-01-27T01:08:49.734Z,-2.60
2019-01-27T01:11:31.747Z,-2.70
2019-01-27T01:14:14.234Z,-2.70
2019-01-27T01:16:57.038Z,-2.80
2019-01-27T01:19:39.036Z,-2.80
2019-01-27T01:22:21.142Z,-2.80
2019-01-27T01:25:03.572Z,-2.90
2019-01-27T01:27:45.346Z,-2.90
2019-01-27T01:30:27.266Z,-2.90
2019-01-27T01:33:08.974Z,-3.00
2019-01-27T01:35:50.726Z,-3.10
2019-01-27T01:38:33.279Z,-3.10
2019-01-27T01:41:15.836Z,-3.10
2019-01-27T01:43:57.998Z,-3.20
2019-01-27T01:46:39.637Z,-3.20
2019-01-27T01:49:21.954Z,-3.20
2019-01-27T01:52:04.310Z,-3.20
2019-01-27T01:54:46.317Z,-3.20
2019-01-27T01:57:28.269Z,-3.20
2019-01-27T02:00:10.526Z,-3.30
2019-01-27T02:02:52.392Z,-3.30
2019-01-27T02:05:23.010Z,-3.30
2019-01-27T02:08:13.837Z,-3.40
2019-01-27T02:10:57.493Z,-3.40
2019-01-27T02:13:27.841Z,-3.40
2019-01-27T02:16:17.378Z,-3.40
2019-01-27T02:18:49.120Z,-3.40
2019-01-27T02:21:20.866Z,-3.40
2019-01-27T02:23:52.662Z,-3.50
2019-01-27T02:26:43.503Z,-3.50
2019-01-27T02:29:32.926Z,-3.50
2019-01-27T02:32:16.646Z,-3.50
2019-01-27T02:34:58.810Z,-3.60
2019-01-27T02:37:41.001Z,-3.60
2019-01-27T02:40:23.035Z,-3.60
2019-01-27T02:43:05.133Z,-3.70
2019-01-27T02:45:47.292Z,-3.70
2019-01-27T02:48:29.090Z,-3.70
2019-01-27T02:51:10.906Z,-3.70
2019-01-27T02:53:41.250Z,-3.60
2019-01-27T02:56:32.137Z,-3.60
2019-01-27T02:59:15.943Z,-3.60
2019-01-27T03:01:57.718Z,-3.60
2019-01-27T03:04:39.621Z,-3.50
2019-01-27T03:07:27.719Z,-3.50
2019-01-27T03:10:11.589Z,-3.60
2019-01-27T03:12:54.146Z,-3.60
2019-01-27T03:15:36.040Z,-3.60
2019-01-27T03:18:17.996Z,-3.60
2019-01-27T03:20:59.694Z,-3.70
2019-01-27T03:23:41.462Z,-3.70
2019-01-27T03:26:23.513Z,-3.70
2019-01-27T03:29:05.782Z,-3.70
2019-01-27T03:31:48.367Z,-3.70
2019-01-27T03:34:30.466Z,-3.70
2019-01-27T03:37:12.355Z,-3.80
2019-01-27T03:39:54.129Z,-3.80
2019-01-27T03:42:36.523Z,-3.70
2019-01-27T03:45:18.556Z,-3.70
2019-01-27T03:48:00.560Z,-3.70
2019-01-27T03:50:43.158Z,-3.70
2019-01-27T03:53:25.073Z,-3.70
2019-01-27T03:56:06.982Z,-3.70
2019-01-27T03:58:48.942Z,-3.70
2019-01-27T04:01:31.090Z,-3.70
2019-01-27T04:04:12.930Z,-3.70
2019-01-27T04:06:54.721Z,-3.70
2019-01-27T04:09:36.647Z,-3.70
2019-01-27T04:12:18.340Z,-3.70
2019-01-27T04:15:00.418Z,-3.70
2019-01-27T04:17:42.686Z,-3.70
2019-01-27T04:20:24.787Z,-3.70
2019-01-27T04:23:07.031Z,-3.70
2019-01-27T04:25:49.333Z,-3.70
2019-01-27T04:28:31.234Z,-3.70
2019-01-27T04:31:13.070Z,-3.70
2019-01-27T04:33:54.966Z,-3.70
2019-01-27T04:36:37.015Z,-3.70
2019-01-27T04:39:19.001Z,-3.70
2019-01-27T04:42:00.535Z,-3.70
2019-01-27T04:44:42.846Z,-3.70
2019-01-27T04:47:24.586Z,-3.70
2019-01-27T04:50:06.705Z,-3.70
2019-01-27T04:52:49.063Z,-3.70
2019-01-27T04:55:31.376Z,-3.70
2019-01-27T04:58:13.794Z,-3.70
2019-01-27T05:00:54.260Z,-3.70
2019-01-27T05:06:44.489Z,-3.70
2019-01-27T05:09:26.167Z,-3.70
2019-01-27T05:12:08.268Z,-3.70
2019-01-27T05:14:50.042Z,-3.80
2019-01-27T05:17:32.131Z,-3.80
2019-01-27T05:20:14.103Z,-3.80
2019-01-27T05:22:55.826Z,-3.80
2019-01-27T05:25:37.843Z,-3.80
2019-01-27T05:28:19.746Z,-3.80
2019-01-27T05:31:01.943Z,-3.90
2019-01-27T05:33:44.206Z,-3.90
2019-01-27T05:36:25.890Z,-4.00
2019-01-27T05:39:07.718Z,-4.00
2019-01-27T05:41:49.571Z,-4.00
2019-01-27T05:44:31.887Z,-4.10
2019-01-27T05:47:13.665Z,-4.20
2019-01-27T05:49:55.801Z,-4.20
2019-01-27T05:52:37.611Z,-4.30
2019-01-27T05:55:19.963Z,-4.30
2019-01-27T05:58:01.850Z,-4.30
2019-01-27T06:00:45.883Z,-4.30
2019-01-27T06:03:27.982Z,-4.40
2019-01-27T06:06:10.190Z,-4.40
2019-01-27T06:08:52.828Z,-4.40
2019-01-27T06:11:34.639Z,-4.50
2019-01-27T06:14:16.758Z,-4.50
2019-01-27T06:16:58.518Z,-4.50
2019-01-27T06:19:40.568Z,-4.50
2019-01-27T06:22:22.274Z,-4.50
2019-01-27T06:25:04.423Z,-4.50
2019-01-27T06:27:46.786Z,-4.50
2019-01-27T06:30:28.653Z,-4.50
2019-01-27T06:36:12.267Z,-4.50
2019-01-27T06:38:54.285Z,-4.50
2019-01-27T06:41:36.041Z,-4.50
2019-01-27T06:44:18.167Z,-4.50
2019-01-27T06:47:00.790Z,-4.40
2019-01-27T06:49:42.624Z,-4.40
2019-01-27T06:52:24.414Z,-4.40
2019-01-27T06:55:06.265Z,-4.30
2019-01-27T06:57:47.905Z,-4.30
2019-01-27T07:04:10.403Z,-4.10
2019-01-27T07:07:18.882Z,-3.90
2019-01-27T07:10:20.967Z,-3.70
2019-01-27T07:13:08.892Z,-3.50
2019-01-27T07:16:10.938Z,-3.20
2019-01-27T07:19:11.672Z,-3.00
2019-01-27T07:25:27.243Z,-2.80
2019-01-27T07:28:20.274Z,-2.70
2019-01-27T07:31:25.784Z,-2.70
2019-01-27T07:34:28.674Z,-2.80
2019-01-27T07:37:29.582Z,-2.80
2019-01-27T07:40:30.425Z,-2.70
2019-01-27T07:43:31.150Z,-2.70
2019-01-27T07:46:20.329Z,-2.60
2019-01-27T07:49:28.400Z,-2.40
2019-01-27T07:52:34.203Z,-2.30
2019-01-27T07:55:37.083Z,-2.20
2019-01-27T07:58:28.881Z,-2.00
2019-01-27T08:01:23.881Z,-1.80
2019-01-27T08:04:26.786Z,-1.70
2019-01-27T08:07:27.490Z,-1.60
2019-01-27T08:10:21.167Z,-1.40
2019-01-27T08:13:23.750Z,-1.30
2019-01-27T08:16:24.466Z,-1.20
2019-01-27T08:19:25.822Z,-1.10
2019-01-27T08:22:29.631Z,-1.00
2019-01-27T08:25:32.030Z,-0.90
2019-01-27T08:28:34.887Z,-0.90
2019-01-27T08:34:56.953Z,-1.00
2019-01-27T08:37:46.286Z,-0.90
2019-01-27T08:40:46.285Z,-0.90
2019-01-27T08:43:48.902Z,-0.80
2019-01-27T08:46:34.914Z,-0.90
2019-01-27T08:49:16.830Z,-0.80
2019-01-27T08:51:59.002Z,-0.80
2019-01-27T08:54:41.294Z,-0.60
2019-01-27T08:57:23.211Z,-0.60
2019-01-27T09:00:05.267Z,-0.60
2019-01-27T09:03:05.814Z,-0.50
2019-01-27T09:12:09.922Z,0.00
2019-01-27T09:18:44.058Z,0.20
2019-01-27T09:22:02.825Z,0.10
2019-01-27T09:24:58.954Z,0.10
2019-01-27T09:27:59.245Z,0.10
2019-01-27T09:30:55.529Z,0.10
2019-01-27T09:33:59.510Z,0.30
2019-01-27T09:37:04.398Z,0.30
2019-01-27T09:40:06.620Z,0.50
2019-01-27T09:43:07.619Z,0.90
2019-01-27T09:46:11.456Z,1.20
2019-01-27T09:49:17.072Z,1.30
2019-01-27T09:52:19.817Z,1.40
2019-01-27T09:55:21.829Z,1.50
2019-01-27T09:58:22.644Z,1.70
2019-01-27T10:01:16.395Z,1.70
2019-01-27T10:04:25.155Z,1.70
2019-01-27T10:07:33.022Z,1.60
2019-01-27T10:10:35.140Z,1.70
2019-01-27T10:13:36.246Z,1.90
2019-01-27T10:16:37.250Z,1.80
2019-01-27T10:19:37.960Z,1.80
2019-01-27T10:22:38.946Z,1.80
2019-01-27T10:25:41.871Z,1.90
2019-01-27T10:28:47.386Z,2.00
2019-01-27T10:31:41.074Z,2.10
2019-01-27T10:34:43.239Z,2.00
2019-01-27T10:37:31.642Z,2.10
2019-01-27T10:40:31.106Z,2.10
2019-01-27T10:43:34.648Z,2.10
2019-01-27T10:46:40.170Z,2.20
2019-01-27T10:49:42.150Z,2.10
2019-01-27T10:52:29.042Z,2.20
2019-01-27T10:55:34.758Z,2.30
2019-01-27T10:58:37.478Z,2.40
2019-01-27T11:01:38.383Z,2.40
2019-01-27T11:04:40.702Z,2.50
2019-01-27T11:07:41.656Z,2.70
2019-01-27T11:10:42.286Z,2.70
2019-01-27T11:13:42.875Z,2.80
2019-01-27T11:16:49.298Z,2.90
2019-01-27T11:19:57.418Z,3.00
2019-01-27T11:23:06.166Z,3.20
2019-01-27T11:26:08.362Z,3.30
2019-01-27T11:29:16.606Z,3.20
2019-01-27T11:32:13.825Z,3.30
2019-01-27T11:35:02.790Z,3.20
2019-01-27T11:38:12.499Z,3.20
2019-01-27T11:41:21.385Z,3.30
2019-01-27T11:44:18.005Z,3.30
2019-01-27T11:47:19.954Z,3.30
2019-01-27T11:50:11.900Z,3.20
2019-01-27T11:52:59.469Z,3.20
2019-01-27T11:55:48.809Z,3.30
2019-01-27T11:58:32.526Z,3.40
2019-01-27T12:01:14.776Z,3.50
2019-01-27T12:03:56.847Z,3.40
2019-01-27T12:06:37.234Z,3.50
2019-01-27T12:09:26.582Z,3.50
2019-01-27T12:12:17.373Z,3.40
2019-01-27T12:15:05.541Z,3.40
2019-01-27T12:17:47.662Z,3.50
2019-01-27T12:20:29.506Z,3.50
2019-01-27T12:23:11.614Z,3.50
2019-01-27T12:25:53.327Z,3.40
2019-01-27T12:28:35.073Z,3.40
2019-01-27T12:31:16.848Z,3.40
2019-01-27T12:33:58.561Z,3.40
2019-01-27T12:36:40.407Z,3.50
2019-01-27T12:39:22.298Z,3.50
2019-01-27T12:42:03.974Z,3.40
2019-01-27T12:44:45.604Z,3.20
2019-01-27T12:47:27.210Z,3.20
2019-01-27T12:50:09.058Z,3.20
2019-01-27T12:52:50.703Z,3.30
2019-01-27T12:55:32.758Z,3.30
2019-01-27T12:58:13.298Z,3.30
2019-01-27T13:01:04.413Z,3.40
2019-01-27T13:03:47.517Z,3.40
2019-01-27T13:06:29.587Z,3.40
2019-01-27T13:09:11.289Z,3.40
2019-01-27T13:17:52.300Z,3.70
2019-01-27T13:20:33.986Z,3.60
2019-01-27T13:23:04.294Z,3.50
2019-01-27T13:25:55.089Z,3.50
2019-01-27T13:28:39.004Z,3.40
2019-01-27T13:31:21.057Z,3.30
2019-01-27T13:34:03.598Z,3.30
2019-01-27T13:36:45.429Z,3.30
2019-01-27T13:39:27.021Z,3.50
2019-01-27T13:42:09.485Z,3.50
2019-01-27T13:44:51.251Z,3.40
2019-01-27T13:47:33.286Z,3.30
2019-01-27T13:50:15.394Z,3.30
2019-01-27T13:52:57.271Z,3.20
2019-01-27T13:55:39.195Z,3.20
2019-01-27T13:58:21.083Z,3.20
2019-01-27T14:01:01.628Z,3.10
2019-01-27T14:03:51.087Z,3.10
2019-01-27T14:06:34.991Z,3.00
2019-01-27T14:09:17.125Z,3.00
2019-01-27T14:11:59.174Z,3.00
2019-01-27T14:14:41.142Z,3.00
2019-01-27T14:17:23.291Z,3.10
2019-01-27T14:20:05.424Z,3.20
2019-01-27T14:22:47.276Z,3.10
2019-01-27T14:25:29.361Z,3.00
2019-01-27T14:28:10.998Z,2.90
2019-01-27T14:30:52.878Z,2.80
2019-01-27T14:33:35.007Z,2.80
2019-01-27T14:36:17.238Z,2.70
2019-01-27T14:38:58.913Z,2.60
2019-01-27T14:41:40.801Z,2.60
2019-01-27T14:44:23.038Z,2.60
2019-01-27T14:47:06.308Z,2.60
2019-01-27T14:49:48.105Z,2.90
2019-01-27T14:52:29.850Z,3.10
2019-01-27T14:55:11.538Z,3.20
2019-01-27T14:57:53.839Z,3.20
2019-01-27T15:00:36.635Z,3.30
2019-01-27T15:03:18.685Z,3.20
2019-01-27T15:06:00.889Z,3.00
2019-01-27T15:08:45.913Z,2.90
2019-01-27T15:11:26.234Z,2.70
2019-01-27T15:14:08.238Z,2.70
2019-01-27T15:16:50.606Z,2.60
2019-01-27T15:19:32.830Z,2.50
2019-01-27T15:22:14.736Z,2.50
2019-01-27T15:24:56.538Z,2.50
2019-01-27T15:27:38.218Z,2.40
2019-01-27T15:30:20.082Z,2.40
2019-01-27T15:33:01.956Z,2.30
2019-01-27T15:35:43.897Z,2.30
2019-01-27T15:38:26.090Z,2.20
2019-01-27T15:41:08.010Z,2.20
2019-01-27T15:43:49.822Z,2.20
2019-01-27T15:46:31.554Z,2.10
2019-01-27T15:49:13.397Z,2.10
2019-01-27T15:51:55.315Z,2.00
2019-01-27T15:54:37.685Z,1.90
2019-01-27T15:57:20.062Z,1.90
2019-01-27T16:00:02.469Z,1.80
2019-01-27T16:02:44.577Z,1.90
2019-01-27T16:05:26.513Z,2.10
2019-01-27T16:08:08.906Z,2.20
2019-01-27T16:10:50.995Z,2.10
2019-01-27T16:13:32.858Z,2.10
2019-01-27T16:16:15.326Z,2.00
2019-01-27T16:18:58.908Z,1.90
2019-01-27T16:21:41.165Z,1.80
2019-01-27T16:24:27.389Z,1.80
2019-01-27T16:27:07.781Z,1.70
2019-01-27T16:33:13.193Z,1.60
2019-01-27T16:35:54.792Z,1.50
2019-01-27T16:38:36.474Z,1.50
2019-01-27T16:41:18.590Z,1.50
2019-01-27T16:44:01.038Z,1.50
2019-01-27T16:46:42.877Z,1.50
2019-01-27T16:49:24.850Z,1.50
2019-01-27T16:52:06.789Z,1.40
2019-01-27T16:54:48.930Z,1.40
2019-01-27T16:57:31.123Z,1.40
2019-01-27T17:00:13.396Z,1.40
2019-01-27T17:02:55.909Z,1.40
2019-01-27T17:05:38.008Z,1.40
2019-01-27T17:08:20.238Z,1.30
2019-01-27T17:11:02.101Z,1.30
2019-01-27T17:13:44.405Z,1.30
2019-01-27T17:16:26.491Z,1.30
2019-01-27T17:19:08.348Z,1.30
2019-01-27T17:21:50.379Z,1.20
2019-01-27T17:24:32.619Z,1.20
2019-01-27T17:27:14.699Z,1.10
2019-01-27T17:29:56.684Z,1.10
2019-01-27T17:32:41.466Z,1.10
2019-01-27T17:35:23.855Z,1.10
2019-01-27T17:38:05.868Z,1.00
2019-01-27T17:40:47.566Z,1.00
2019-01-27T17:43:29.844Z,1.00
2019-01-27T17:46:12.163Z,0.90
2019-01-27T17:48:53.889Z,0.90
2019-01-27T17:51:36.062Z,0.90
2019-01-27T17:54:17.928Z,1.00
2019-01-27T18:00:27.119Z,1.10
2019-01-27T18:03:28.439Z,1.30
2019-01-27T18:06:30.497Z,1.20
2019-01-27T18:09:31.439Z,1.10
2019-01-27T18:12:19.951Z,0.90
2019-01-27T18:15:03.447Z,0.80
2019-01-27T18:17:45.354Z,0.70
2019-01-27T18:20:27.317Z,0.70
2019-01-27T18:23:09.356Z,0.60
2019-01-27T18:25:51.217Z,0.60
2019-01-27T18:28:33.849Z,0.50
2019-01-27T18:31:16.394Z,0.40
2019-01-27T18:33:58.917Z,0.40
2019-01-27T18:36:40.863Z,0.40
2019-01-27T18:39:22.628Z,0.30
2019-01-27T18:42:04.978Z,0.30
2019-01-27T18:44:47.039Z,0.30
2019-01-27T18:47:28.858Z,0.20
2019-01-27T18:50:10.969Z,0.20
2019-01-27T18:53:15.374Z,0.10
2019-01-27T18:56:20.667Z,0.00
2019-01-27T18:59:22.799Z,0.00
2019-01-27T19:02:25.705Z,0.00
2019-01-27T19:05:34.518Z,0.00
2019-01-27T19:08:39.906Z,-0.10
2019-01-27T19:11:42.647Z,-0.20
2019-01-27T19:14:43.503Z,-0.10
2019-01-27T19:17:42.643Z,0.20
2019-01-27T19:20:37.527Z,0.00
2019-01-27T19:26:47.144Z,-0.20
2019-01-27T19:29:49.656Z,-0.30
2019-01-27T19:32:40.648Z,-0.40
2019-01-27T19:35:49.238Z,-0.40
2019-01-27T19:38:51.834Z,-0.50
2019-01-27T19:41:52.423Z,-0.40
2019-01-27T19:44:55.410Z,-0.40
2019-01-27T19:47:47.955Z,-0.30
2019-01-27T19:50:40.757Z,-0.30
2019-01-27T19:53:37.530Z,-0.30
2019-01-27T19:56:40.782Z,-0.30
2019-01-27T19:59:41.582Z,-0.30
2019-01-27T20:02:45.350Z,-0.30
2019-01-27T20:05:48.074Z,-0.30
2019-01-27T20:08:49.181Z,-0.20
2019-01-27T20:11:55.282Z,-0.20
2019-01-27T20:14:57.542Z,-0.10
2019-01-27T20:17:57.893Z,0.00
2019-01-27T20:21:03.616Z,0.30
2019-01-27T20:24:06.785Z,0.40
2019-01-27T20:27:07.992Z,0.40
2019-01-27T20:32:42.958Z,0.50
2019-01-27T20:35:49.275Z,0.40
2019-01-27T20:38:51.602Z,0.30
2019-01-27T20:41:52.257Z,0.20
2019-01-27T20:44:43.790Z,0.20
2019-01-27T20:47:43.565Z,0.10
2019-01-27T20:50:46.210Z,0.10
2019-01-27T20:53:48.906Z,0.10
2019-01-27T20:56:49.980Z,0.10
2019-01-27T20:59:50.814Z,0.10
2019-01-27T21:02:51.706Z,0.00
2019-01-27T21:05:40.991Z,-0.10
2019-01-27T21:08:43.867Z,-0.20
2019-01-27T21:11:38.592Z,-0.10
2019-01-27T21:14:28.638Z,-0.10
2019-01-27T21:17:31.243Z,0.20
2019-01-27T21:20:19.022Z,0.20
2019-01-27T21:23:02.395Z,0.20
2019-01-27T21:25:44.550Z,0.30
2019-01-27T21:28:26.898Z,0.30
2019-01-27T21:31:08.914Z,0.30
2019-01-27T21:33:50.585Z,0.60
2019-01-27T21:36:32.543Z,0.80
2019-01-27T21:39:14.291Z,0.70
2019-01-27T21:41:56.114Z,0.60
2019-01-27T21:44:38.422Z,0.60
2019-01-27T21:47:20.237Z,0.60
2019-01-27T21:50:02.469Z,0.60
2019-01-27T21:52:44.275Z,0.60
2019-01-27T21:55:25.955Z,0.60
2019-01-27T21:58:07.860Z,0.60
2019-01-27T22:00:49.979Z,0.60
2019-01-27T22:06:13.340Z,0.60
2019-01-27T22:08:55.128Z,0.60
2019-01-27T22:11:25.538Z,0.60
2019-01-27T22:13:57.367Z,0.60
2019-01-27T22:16:39.355Z,0.60
2019-01-27T22:19:21.500Z,0.70
2019-01-27T22:22:03.126Z,0.70
2019-01-27T22:24:45.638Z,0.70
2019-01-27T22:27:27.706Z,0.70
2019-01-27T22:30:11.706Z,0.70
2019-01-27T22:32:53.577Z,0.70
2019-01-27T22:35:35.491Z,0.70
2019-01-27T22:38:17.691Z,0.70
2019-01-27T22:40:59.543Z,0.80
2019-01-27T22:43:29.856Z,0.80
2019-01-27T22:46:01.680Z,0.80
2019-01-27T22:48:45.002Z,0.70
2019-01-27T22:51:25.418Z,0.70
2019-01-27T22:54:14.784Z,0.80
2019-01-27T22:56:58.746Z,0.70
2019-01-27T22:59:40.602Z,0.70
2019-01-27T23:02:22.657Z,0.70
2019-01-27T23:05:04.945Z,0.70
2019-01-27T23:07:46.739Z,0.70
2019-01-27T23:10:29.610Z,0.70
2019-01-27T23:13:11.550Z,0.70
2019-01-27T23:15:53.597Z,0.70
2019-01-27T23:18:35.594Z,0.70
2019-01-27T23:21:17.266Z,0.70
2019-01-27T23:26:59.382Z,0.60
2019-01-27T23:29:41.498Z,0.70
2019-01-27T23:32:23.135Z,0.70
2019-01-27T23:35:05.096Z,0.70
2019-01-27T23:37:47.351Z,0.80
2019-01-27T23:40:29.110Z,0.80
2019-01-27T23:43:11.256Z,0.80
2019-01-27T23:45:53.331Z,0.80
2019-01-27T23:48:35.535Z,0.80
2019-01-27T23:51:17.832Z,0.80
2019-01-27T23:53:59.634Z,0.80
2019-01-27T23:56:41.702Z,0.80
2019-01-27T23:59:22.178Z,0.80
